sensor_id;sensor_type;location;lat;lon;timestamp;temperature;humidity
59469;DHT22;45277;52.768;18.262;2023-04-24T00:00:03;11.80;99.90
59469;DHT22;45277;52.768;18.262;2023-04-24T00:01:37;11.70;99.90
59469;DHT22;45277;52.768;18.262;2023-04-24T00:03:10;11.70;99.90
59469;DHT22;45277;52.768;18.262;2023-04-24T00:04:42;11.70;99.90
59469;DHT22;45277;52.768;18.262;2023-04-24T00:06:16;11.70;99.90
59469;DHT22;45277;52.768;18.262;2023-04-24T00:07:48;11.80;99.90
59469;DHT22;45277;52.768;18.262;2023-04-24T00:09:19;11.80;99.90
59469;DHT22;45277;52.768;18.262;2023-04-24T00:10:51;11.80;99.90
59469;DHT22;45277;52.768;18.262;2023-04-24T00:12:24;11.80;99.90
59469;DHT22;45277;52.768;18.262;2023-04-24T00:13:56;11.90;99.90
59469;DHT22;45277;52.768;18.262;2023-04-24T00:15:28;11.90;99.90
59469;DHT22;45277;52.768;18.262;2023-04-24T00:16:59;11.90;99.90
59469;DHT22;45277;52.768;18.262;2023-04-24T00:18:31;11.90;99.90
59469;DHT22;45277;52.768;18.262;2023-04-24T00:20:03;11.90;99.90
59469;DHT22;45277;52.768;18.262;2023-04-24T00:21:35;12.00;99.90
59469;DHT22;45277;52.768;18.262;2023-04-24T00:23:07;12.00;99.90
59469;DHT22;45277;52.768;18.262;2023-04-24T00:24:39;12.10;99.90
59469;DHT22;45277;52.768;18.262;2023-04-24T00:26:10;12.10;99.90
59469;DHT22;45277;52.768;18.262;2023-04-24T00:27:42;12.10;99.90
59469;DHT22;45277;52.768;18.262;2023-04-24T00:29:13;12.10;99.90
59469;DHT22;45277;52.768;18.262;2023-04-24T00:30:45;12.10;99.90
59469;DHT22;45277;52.768;18.262;2023-04-24T00:32:16;12.10;99.90
59469;DHT22;45277;52.768;18.262;2023-04-24T00:33:48;12.10;99.90
59469;DHT22;45277;52.768;18.262;2023-04-24T00:35:19;12.10;99.90
59469;DHT22;45277;52.768;18.262;2023-04-24T00:36:51;12.10;99.90
59469;DHT22;45277;52.768;18.262;2023-04-24T00:38:23;12.00;99.90
59469;DHT22;45277;52.768;18.262;2023-04-24T00:39:54;12.00;99.90
59469;DHT22;45277;52.768;18.262;2023-04-24T00:41:26;12.10;99.90
59469;DHT22;45277;52.768;18.262;2023-04-24T00:42:58;12.10;99.90
59469;DHT22;45277;52.768;18.262;2023-04-24T00:44:29;12.10;99.90
59469;DHT22;45277;52.768;18.262;2023-04-24T00:46:01;12.10;99.90
59469;DHT22;45277;52.768;18.262;2023-04-24T00:47:33;12.10;99.90
59469;DHT22;45277;52.768;18.262;2023-04-24T00:49:05;12.10;99.90
59469;DHT22;45277;52.768;18.262;2023-04-24T00:50:38;12.10;99.90
59469;DHT22;45277;52.768;18.262;2023-04-24T00:52:10;12.10;99.90
59469;DHT22;45277;52.768;18.262;2023-04-24T00:53:41;12.10;99.90
59469;DHT22;45277;52.768;18.262;2023-04-24T00:55:13;12.10;99.90
59469;DHT22;45277;52.768;18.262;2023-04-24T00:56:44;12.10;99.90
59469;DHT22;45277;52.768;18.262;2023-04-24T00:58:16;12.10;99.90
59469;DHT22;45277;52.768;18.262;2023-04-24T00:59:48;12.10;99.90
59469;DHT22;45277;52.768;18.262;2023-04-24T01:01:20;12.00;99.90
59469;DHT22;45277;52.768;18.262;2023-04-24T01:02:52;12.00;99.90
59469;DHT22;45277;52.768;18.262;2023-04-24T01:04:24;12.00;99.90
59469;DHT22;45277;52.768;18.262;2023-04-24T01:05:57;12.00;99.90
59469;DHT22;45277;52.768;18.262;2023-04-24T01:07:29;12.00;99.90
59469;DHT22;45277;52.768;18.262;2023-04-24T01:09:01;12.00;99.90
59469;DHT22;45277;52.768;18.262;2023-04-24T01:10:33;12.00;99.90
59469;DHT22;45277;52.768;18.262;2023-04-24T01:12:06;12.00;99.90
59469;DHT22;45277;52.768;18.262;2023-04-24T01:13:38;11.90;99.90
59469;DHT22;45277;52.768;18.262;2023-04-24T01:15:10;11.90;99.90
59469;DHT22;45277;52.768;18.262;2023-04-24T01:16:42;12.00;99.90
59469;DHT22;45277;52.768;18.262;2023-04-24T01:18:14;12.00;99.90
59469;DHT22;45277;52.768;18.262;2023-04-24T01:19:46;12.00;99.90
59469;DHT22;45277;52.768;18.262;2023-04-24T01:21:18;12.00;99.90
59469;DHT22;45277;52.768;18.262;2023-04-24T01:22:54;12.10;99.90
59469;DHT22;45277;52.768;18.262;2023-04-24T01:24:27;12.00;99.90
59469;DHT22;45277;52.768;18.262;2023-04-24T01:25:59;12.10;99.90
59469;DHT22;45277;52.768;18.262;2023-04-24T01:27:31;12.10;99.90
59469;DHT22;45277;52.768;18.262;2023-04-24T01:29:02;12.00;99.90
59469;DHT22;45277;52.768;18.262;2023-04-24T01:30:34;12.00;99.90
59469;DHT22;45277;52.768;18.262;2023-04-24T01:32:06;12.00;99.90
59469;DHT22;45277;52.768;18.262;2023-04-24T01:33:37;11.90;99.90
59469;DHT22;45277;52.768;18.262;2023-04-24T01:35:09;11.90;99.90
59469;DHT22;45277;52.768;18.262;2023-04-24T01:36:41;11.90;99.90
59469;DHT22;45277;52.768;18.262;2023-04-24T01:38:14;11.80;99.90
59469;DHT22;45277;52.768;18.262;2023-04-24T01:39:45;11.80;99.90
59469;DHT22;45277;52.768;18.262;2023-04-24T01:41:17;11.80;99.90
59469;DHT22;45277;52.768;18.262;2023-04-24T01:42:49;11.70;99.90
59469;DHT22;45277;52.768;18.262;2023-04-24T01:44:21;11.70;99.90
59469;DHT22;45277;52.768;18.262;2023-04-24T01:45:53;11.60;99.90
59469;DHT22;45277;52.768;18.262;2023-04-24T01:47:24;11.70;99.90
59469;DHT22;45277;52.768;18.262;2023-04-24T01:48:56;11.70;99.90
59469;DHT22;45277;52.768;18.262;2023-04-24T01:50:27;11.60;99.90
59469;DHT22;45277;52.768;18.262;2023-04-24T01:51:59;11.60;99.90
59469;DHT22;45277;52.768;18.262;2023-04-24T01:53:30;11.60;99.90
59469;DHT22;45277;52.768;18.262;2023-04-24T01:55:03;11.60;99.90
59469;DHT22;45277;52.768;18.262;2023-04-24T01:56:35;11.70;99.90
59469;DHT22;45277;52.768;18.262;2023-04-24T01:58:07;11.70;99.90
59469;DHT22;45277;52.768;18.262;2023-04-24T01:59:39;11.70;99.90
59469;DHT22;45277;52.768;18.262;2023-04-24T02:01:17;11.70;99.90
59469;DHT22;45277;52.768;18.262;2023-04-24T02:02:49;11.70;99.90
59469;DHT22;45277;52.768;18.262;2023-04-24T02:04:21;11.70;99.90
59469;DHT22;45277;52.768;18.262;2023-04-24T02:05:52;11.70;99.90
59469;DHT22;45277;52.768;18.262;2023-04-24T02:07:24;11.60;99.90
59469;DHT22;45277;52.768;18.262;2023-04-24T02:08:56;11.60;99.90
59469;DHT22;45277;52.768;18.262;2023-04-24T02:10:27;11.70;99.90
59469;DHT22;45277;52.768;18.262;2023-04-24T02:11:58;11.70;99.90
59469;DHT22;45277;52.768;18.262;2023-04-24T02:13:30;11.70;99.90
59469;DHT22;45277;52.768;18.262;2023-04-24T02:15:01;11.70;99.90
59469;DHT22;45277;52.768;18.262;2023-04-24T02:16:33;11.70;99.90
59469;DHT22;45277;52.768;18.262;2023-04-24T02:18:07;11.70;99.90
59469;DHT22;45277;52.768;18.262;2023-04-24T02:19:38;11.70;99.90
59469;DHT22;45277;52.768;18.262;2023-04-24T02:21:10;11.60;99.90
59469;DHT22;45277;52.768;18.262;2023-04-24T02:22:42;11.60;99.90
59469;DHT22;45277;52.768;18.262;2023-04-24T02:24:13;11.60;99.90
59469;DHT22;45277;52.768;18.262;2023-04-24T02:25:44;11.60;99.90
59469;DHT22;45277;52.768;18.262;2023-04-24T02:27:17;11.70;99.90
59469;DHT22;45277;52.768;18.262;2023-04-24T02:28:48;11.60;99.90
59469;DHT22;45277;52.768;18.262;2023-04-24T02:30:19;11.70;99.90
59469;DHT22;45277;52.768;18.262;2023-04-24T02:31:51;11.60;99.90
59469;DHT22;45277;52.768;18.262;2023-04-24T02:33:22;11.60;99.90
59469;DHT22;45277;52.768;18.262;2023-04-24T02:34:54;11.60;99.90
59469;DHT22;45277;52.768;18.262;2023-04-24T02:36:25;11.60;99.90
59469;DHT22;45277;52.768;18.262;2023-04-24T02:37:57;11.60;99.90
59469;DHT22;45277;52.768;18.262;2023-04-24T02:39:28;11.50;99.90
59469;DHT22;45277;52.768;18.262;2023-04-24T02:41:00;11.50;99.90
59469;DHT22;45277;52.768;18.262;2023-04-24T02:42:32;11.50;99.90
59469;DHT22;45277;52.768;18.262;2023-04-24T02:44:04;11.50;99.90
59469;DHT22;45277;52.768;18.262;2023-04-24T02:45:36;11.50;99.90
59469;DHT22;45277;52.768;18.262;2023-04-24T02:47:09;11.40;99.90
59469;DHT22;45277;52.768;18.262;2023-04-24T02:48:40;11.40;99.90
59469;DHT22;45277;52.768;18.262;2023-04-24T02:50:12;11.50;99.90
59469;DHT22;45277;52.768;18.262;2023-04-24T02:51:43;11.50;99.90
59469;DHT22;45277;52.768;18.262;2023-04-24T02:53:14;11.50;99.90
59469;DHT22;45277;52.768;18.262;2023-04-24T02:54:46;11.50;99.90
59469;DHT22;45277;52.768;18.262;2023-04-24T02:56:17;11.50;99.90
59469;DHT22;45277;52.768;18.262;2023-04-24T02:57:48;11.50;99.90
59469;DHT22;45277;52.768;18.262;2023-04-24T02:59:20;11.50;99.90
59469;DHT22;45277;52.768;18.262;2023-04-24T03:00:55;11.50;99.90
59469;DHT22;45277;52.768;18.262;2023-04-24T03:02:26;11.50;99.90
59469;DHT22;45277;52.768;18.262;2023-04-24T03:03:58;11.50;99.90
59469;DHT22;45277;52.768;18.262;2023-04-24T03:05:30;11.50;99.90
59469;DHT22;45277;52.768;18.262;2023-04-24T03:07:02;11.50;99.90
59469;DHT22;45277;52.768;18.262;2023-04-24T03:08:34;11.50;99.90
59469;DHT22;45277;52.768;18.262;2023-04-24T03:10:06;11.50;99.90
59469;DHT22;45277;52.768;18.262;2023-04-24T03:11:37;11.50;99.90
59469;DHT22;45277;52.768;18.262;2023-04-24T03:13:09;11.50;99.90
59469;DHT22;45277;52.768;18.262;2023-04-24T03:14:40;11.50;99.90
59469;DHT22;45277;52.768;18.262;2023-04-24T03:16:12;11.60;99.90
59469;DHT22;45277;52.768;18.262;2023-04-24T03:17:44;11.60;99.90
59469;DHT22;45277;52.768;18.262;2023-04-24T03:19:15;11.60;99.90
59469;DHT22;45277;52.768;18.262;2023-04-24T03:20:47;11.70;99.90
59469;DHT22;45277;52.768;18.262;2023-04-24T03:22:18;11.70;99.90
59469;DHT22;45277;52.768;18.262;2023-04-24T03:23:50;11.70;99.90
59469;DHT22;45277;52.768;18.262;2023-04-24T03:25:21;11.80;99.90
59469;DHT22;45277;52.768;18.262;2023-04-24T03:26:53;11.80;99.90
59469;DHT22;45277;52.768;18.262;2023-04-24T03:28:24;11.80;99.90
59469;DHT22;45277;52.768;18.262;2023-04-24T03:29:56;11.80;99.90
59469;DHT22;45277;52.768;18.262;2023-04-24T03:31:27;11.80;99.90
59469;DHT22;45277;52.768;18.262;2023-04-24T03:32:59;11.80;99.90
59469;DHT22;45277;52.768;18.262;2023-04-24T03:34:30;11.80;99.90
59469;DHT22;45277;52.768;18.262;2023-04-24T03:36:02;11.80;99.90
59469;DHT22;45277;52.768;18.262;2023-04-24T03:37:34;11.80;99.90
59469;DHT22;45277;52.768;18.262;2023-04-24T03:39:05;11.70;99.90
59469;DHT22;45277;52.768;18.262;2023-04-24T03:40:37;11.80;99.90
59469;DHT22;45277;52.768;18.262;2023-04-24T03:42:08;11.70;99.90
59469;DHT22;45277;52.768;18.262;2023-04-24T03:43:39;11.70;99.90
59469;DHT22;45277;52.768;18.262;2023-04-24T03:45:11;11.60;99.90
59469;DHT22;45277;52.768;18.262;2023-04-24T03:46:43;11.60;99.90
59469;DHT22;45277;52.768;18.262;2023-04-24T03:48:14;11.50;99.90
59469;DHT22;45277;52.768;18.262;2023-04-24T03:49:46;11.50;99.90
59469;DHT22;45277;52.768;18.262;2023-04-24T03:51:17;11.40;99.90
59469;DHT22;45277;52.768;18.262;2023-04-24T03:52:48;11.30;99.90
59469;DHT22;45277;52.768;18.262;2023-04-24T03:54:20;11.30;99.90
59469;DHT22;45277;52.768;18.262;2023-04-24T03:55:52;11.30;99.90
59469;DHT22;45277;52.768;18.262;2023-04-24T03:57:23;11.20;99.90
59469;DHT22;45277;52.768;18.262;2023-04-24T03:58:56;11.20;99.90
59469;DHT22;45277;52.768;18.262;2023-04-24T04:00:27;11.20;99.90
59469;DHT22;45277;52.768;18.262;2023-04-24T04:01:59;11.20;99.90
59469;DHT22;45277;52.768;18.262;2023-04-24T04:03:30;11.20;99.90
59469;DHT22;45277;52.768;18.262;2023-04-24T04:05:02;11.20;99.90
59469;DHT22;45277;52.768;18.262;2023-04-24T04:06:33;11.30;99.90
59469;DHT22;45277;52.768;18.262;2023-04-24T04:08:06;11.30;99.90
59469;DHT22;45277;52.768;18.262;2023-04-24T04:09:37;11.40;99.90
59469;DHT22;45277;52.768;18.262;2023-04-24T04:11:08;11.40;99.90
59469;DHT22;45277;52.768;18.262;2023-04-24T04:12:40;11.40;99.90
59469;DHT22;45277;52.768;18.262;2023-04-24T04:14:11;11.50;99.90
59469;DHT22;45277;52.768;18.262;2023-04-24T04:15:43;11.50;99.90
59469;DHT22;45277;52.768;18.262;2023-04-24T04:17:14;11.60;99.90
59469;DHT22;45277;52.768;18.262;2023-04-24T04:18:46;11.60;99.90
59469;DHT22;45277;52.768;18.262;2023-04-24T04:20:17;11.70;99.90
59469;DHT22;45277;52.768;18.262;2023-04-24T04:21:49;11.70;99.90
59469;DHT22;45277;52.768;18.262;2023-04-24T04:23:24;11.80;99.90
59469;DHT22;45277;52.768;18.262;2023-04-24T04:24:55;11.80;99.90
59469;DHT22;45277;52.768;18.262;2023-04-24T04:26:27;11.90;99.90
59469;DHT22;45277;52.768;18.262;2023-04-24T04:27:59;11.90;99.90
59469;DHT22;45277;52.768;18.262;2023-04-24T04:29:30;11.90;99.90
59469;DHT22;45277;52.768;18.262;2023-04-24T04:31:06;12.00;99.90
59469;DHT22;45277;52.768;18.262;2023-04-24T04:32:38;12.00;99.90
59469;DHT22;45277;52.768;18.262;2023-04-24T04:34:10;12.00;99.90
59469;DHT22;45277;52.768;18.262;2023-04-24T04:35:43;12.00;99.90
59469;DHT22;45277;52.768;18.262;2023-04-24T04:37:14;12.00;99.90
59469;DHT22;45277;52.768;18.262;2023-04-24T04:38:46;12.00;99.90
59469;DHT22;45277;52.768;18.262;2023-04-24T04:40:17;12.10;99.90
59469;DHT22;45277;52.768;18.262;2023-04-24T04:41:49;12.10;99.90
59469;DHT22;45277;52.768;18.262;2023-04-24T04:43:21;12.20;99.90
59469;DHT22;45277;52.768;18.262;2023-04-24T04:44:53;12.20;99.90
59469;DHT22;45277;52.768;18.262;2023-04-24T04:46:24;12.40;99.90
59469;DHT22;45277;52.768;18.262;2023-04-24T04:47:57;12.50;99.90
59469;DHT22;45277;52.768;18.262;2023-04-24T04:49:29;12.60;99.90
59469;DHT22;45277;52.768;18.262;2023-04-24T04:51:01;12.70;99.90
59469;DHT22;45277;52.768;18.262;2023-04-24T04:52:33;12.80;99.90
59469;DHT22;45277;52.768;18.262;2023-04-24T04:54:04;12.90;99.90
59469;DHT22;45277;52.768;18.262;2023-04-24T04:55:37;13.00;99.90
59469;DHT22;45277;52.768;18.262;2023-04-24T04:57:08;13.10;99.90
59469;DHT22;45277;52.768;18.262;2023-04-24T04:58:40;13.20;99.90
59469;DHT22;45277;52.768;18.262;2023-04-24T05:00:12;13.30;99.90
59469;DHT22;45277;52.768;18.262;2023-04-24T05:01:44;13.50;99.90
59469;DHT22;45277;52.768;18.262;2023-04-24T05:03:15;13.60;99.90
59469;DHT22;45277;52.768;18.262;2023-04-24T05:04:46;13.60;99.90
59469;DHT22;45277;52.768;18.262;2023-04-24T05:06:18;13.70;99.90
59469;DHT22;45277;52.768;18.262;2023-04-24T05:07:50;13.70;99.90
59469;DHT22;45277;52.768;18.262;2023-04-24T05:09:21;13.80;99.90
59469;DHT22;45277;52.768;18.262;2023-04-24T05:10:53;13.80;99.90
59469;DHT22;45277;52.768;18.262;2023-04-24T05:12:25;13.80;99.90
59469;DHT22;45277;52.768;18.262;2023-04-24T05:13:56;13.90;99.90
59469;DHT22;45277;52.768;18.262;2023-04-24T05:15:28;14.00;99.90
59469;DHT22;45277;52.768;18.262;2023-04-24T05:16:59;14.00;99.90
59469;DHT22;45277;52.768;18.262;2023-04-24T05:18:32;14.00;99.90
59469;DHT22;45277;52.768;18.262;2023-04-24T05:20:04;14.00;99.90
59469;DHT22;45277;52.768;18.262;2023-04-24T05:21:40;14.10;99.90
59469;DHT22;45277;52.768;18.262;2023-04-24T05:23:11;14.20;99.90
59469;DHT22;45277;52.768;18.262;2023-04-24T05:24:43;14.20;99.90
59469;DHT22;45277;52.768;18.262;2023-04-24T05:26:14;14.30;99.90
59469;DHT22;45277;52.768;18.262;2023-04-24T05:27:46;14.40;99.90
59469;DHT22;45277;52.768;18.262;2023-04-24T05:29:18;14.50;99.90
59469;DHT22;45277;52.768;18.262;2023-04-24T05:30:50;14.50;99.90
59469;DHT22;45277;52.768;18.262;2023-04-24T05:32:22;14.50;99.90
59469;DHT22;45277;52.768;18.262;2023-04-24T05:33:53;14.60;99.90
59469;DHT22;45277;52.768;18.262;2023-04-24T05:35:25;14.70;99.90
59469;DHT22;45277;52.768;18.262;2023-04-24T05:36:56;14.70;99.90
59469;DHT22;45277;52.768;18.262;2023-04-24T05:38:28;14.80;99.90
59469;DHT22;45277;52.768;18.262;2023-04-24T05:40:00;14.80;99.90
59469;DHT22;45277;52.768;18.262;2023-04-24T05:41:31;14.80;99.90
59469;DHT22;45277;52.768;18.262;2023-04-24T05:43:02;14.90;99.90
59469;DHT22;45277;52.768;18.262;2023-04-24T05:44:34;14.90;99.90
59469;DHT22;45277;52.768;18.262;2023-04-24T05:46:05;14.80;99.90
59469;DHT22;45277;52.768;18.262;2023-04-24T05:47:37;14.90;99.90
59469;DHT22;45277;52.768;18.262;2023-04-24T05:49:09;15.00;99.90
59469;DHT22;45277;52.768;18.262;2023-04-24T05:50:40;15.10;99.90
59469;DHT22;45277;52.768;18.262;2023-04-24T05:52:11;15.30;99.90
59469;DHT22;45277;52.768;18.262;2023-04-24T05:53:43;15.30;99.90
59469;DHT22;45277;52.768;18.262;2023-04-24T05:55:14;15.30;99.90
59469;DHT22;45277;52.768;18.262;2023-04-24T05:56:49;15.50;99.90
59469;DHT22;45277;52.768;18.262;2023-04-24T05:58:22;15.50;99.90
59469;DHT22;45277;52.768;18.262;2023-04-24T05:59:53;15.60;99.90
59469;DHT22;45277;52.768;18.262;2023-04-24T06:01:25;15.70;99.90
59469;DHT22;45277;52.768;18.262;2023-04-24T06:02:57;15.80;99.90
59469;DHT22;45277;52.768;18.262;2023-04-24T06:04:29;15.90;99.90
59469;DHT22;45277;52.768;18.262;2023-04-24T06:06:00;15.90;99.90
59469;DHT22;45277;52.768;18.262;2023-04-24T06:07:32;16.00;99.90
59469;DHT22;45277;52.768;18.262;2023-04-24T06:09:04;16.00;99.90
59469;DHT22;45277;52.768;18.262;2023-04-24T06:10:35;16.10;99.90
59469;DHT22;45277;52.768;18.262;2023-04-24T06:12:07;16.00;99.90
59469;DHT22;45277;52.768;18.262;2023-04-24T06:13:40;15.90;99.90
59469;DHT22;45277;52.768;18.262;2023-04-24T06:15:11;15.70;99.90
59469;DHT22;45277;52.768;18.262;2023-04-24T06:16:44;15.70;99.90
59469;DHT22;45277;52.768;18.262;2023-04-24T06:18:15;15.70;99.90
59469;DHT22;45277;52.768;18.262;2023-04-24T06:19:47;15.60;99.90
59469;DHT22;45277;52.768;18.262;2023-04-24T06:21:19;15.60;99.90
59469;DHT22;45277;52.768;18.262;2023-04-24T06:22:50;15.80;99.90
59469;DHT22;45277;52.768;18.262;2023-04-24T06:24:22;15.90;99.90
59469;DHT22;45277;52.768;18.262;2023-04-24T06:25:54;15.80;99.90
59469;DHT22;45277;52.768;18.262;2023-04-24T06:27:25;15.80;99.90
59469;DHT22;45277;52.768;18.262;2023-04-24T06:28:57;15.80;99.90
59469;DHT22;45277;52.768;18.262;2023-04-24T06:30:30;16.00;99.90
59469;DHT22;45277;52.768;18.262;2023-04-24T06:32:02;15.90;99.90
59469;DHT22;45277;52.768;18.262;2023-04-24T06:33:33;16.00;99.90
59469;DHT22;45277;52.768;18.262;2023-04-24T06:35:06;16.00;99.90
59469;DHT22;45277;52.768;18.262;2023-04-24T06:36:39;16.20;99.90
59469;DHT22;45277;52.768;18.262;2023-04-24T06:38:11;16.20;99.90
59469;DHT22;45277;52.768;18.262;2023-04-24T06:39:43;16.30;99.90
59469;DHT22;45277;52.768;18.262;2023-04-24T06:41:14;16.20;99.90
59469;DHT22;45277;52.768;18.262;2023-04-24T06:42:46;16.20;99.90
59469;DHT22;45277;52.768;18.262;2023-04-24T06:44:17;16.10;99.90
59469;DHT22;45277;52.768;18.262;2023-04-24T06:45:49;15.80;99.90
59469;DHT22;45277;52.768;18.262;2023-04-24T06:47:21;15.70;99.90
59469;DHT22;45277;52.768;18.262;2023-04-24T06:48:53;15.60;99.90
59469;DHT22;45277;52.768;18.262;2023-04-24T06:50:28;15.40;99.90
59469;DHT22;45277;52.768;18.262;2023-04-24T06:51:59;15.30;99.90
59469;DHT22;45277;52.768;18.262;2023-04-24T06:53:32;15.10;99.90
59469;DHT22;45277;52.768;18.262;2023-04-24T06:55:04;15.00;99.90
59469;DHT22;45277;52.768;18.262;2023-04-24T06:56:36;14.80;99.90
59469;DHT22;45277;52.768;18.262;2023-04-24T06:58:10;14.50;99.90
59469;DHT22;45277;52.768;18.262;2023-04-24T06:59:42;14.40;99.90
59469;DHT22;45277;52.768;18.262;2023-04-24T07:01:14;14.30;99.90
59469;DHT22;45277;52.768;18.262;2023-04-24T07:02:46;14.10;99.90
59469;DHT22;45277;52.768;18.262;2023-04-24T07:04:18;14.00;99.90
59469;DHT22;45277;52.768;18.262;2023-04-24T07:05:50;13.90;99.90
59469;DHT22;45277;52.768;18.262;2023-04-24T07:07:23;13.90;99.90
59469;DHT22;45277;52.768;18.262;2023-04-24T07:08:54;13.80;99.90
59469;DHT22;45277;52.768;18.262;2023-04-24T07:10:27;13.70;99.90
59469;DHT22;45277;52.768;18.262;2023-04-24T07:12:00;13.70;99.90
59469;DHT22;45277;52.768;18.262;2023-04-24T07:13:31;13.70;99.90
59469;DHT22;45277;52.768;18.262;2023-04-24T07:15:04;13.70;99.90
59469;DHT22;45277;52.768;18.262;2023-04-24T07:16:36;13.70;99.90
59469;DHT22;45277;52.768;18.262;2023-04-24T07:18:08;13.80;99.90
59469;DHT22;45277;52.768;18.262;2023-04-24T07:19:39;13.90;99.90
59469;DHT22;45277;52.768;18.262;2023-04-24T07:21:11;14.00;99.90
59469;DHT22;45277;52.768;18.262;2023-04-24T07:22:43;14.10;99.90
59469;DHT22;45277;52.768;18.262;2023-04-24T07:24:14;14.20;99.90
59469;DHT22;45277;52.768;18.262;2023-04-24T07:25:46;14.30;99.90
59469;DHT22;45277;52.768;18.262;2023-04-24T07:27:18;14.40;99.90
59469;DHT22;45277;52.768;18.262;2023-04-24T07:28:49;14.50;99.90
59469;DHT22;45277;52.768;18.262;2023-04-24T07:30:21;14.60;99.90
59469;DHT22;45277;52.768;18.262;2023-04-24T07:31:52;14.70;99.90
59469;DHT22;45277;52.768;18.262;2023-04-24T07:33:25;14.90;99.90
59469;DHT22;45277;52.768;18.262;2023-04-24T07:34:56;15.00;99.90
59469;DHT22;45277;52.768;18.262;2023-04-24T07:36:28;15.00;99.90
59469;DHT22;45277;52.768;18.262;2023-04-24T07:38:00;15.20;99.90
59469;DHT22;45277;52.768;18.262;2023-04-24T07:39:31;15.30;99.90
59469;DHT22;45277;52.768;18.262;2023-04-24T07:41:03;15.40;99.90
59469;DHT22;45277;52.768;18.262;2023-04-24T07:42:34;15.50;99.90
59469;DHT22;45277;52.768;18.262;2023-04-24T07:44:07;15.50;99.90
59469;DHT22;45277;52.768;18.262;2023-04-24T07:45:39;15.60;99.90
59469;DHT22;45277;52.768;18.262;2023-04-24T07:47:10;15.60;99.90
59469;DHT22;45277;52.768;18.262;2023-04-24T07:48:42;15.70;99.90
59469;DHT22;45277;52.768;18.262;2023-04-24T07:50:14;15.70;99.90
59469;DHT22;45277;52.768;18.262;2023-04-24T07:51:45;15.80;99.90
59469;DHT22;45277;52.768;18.262;2023-04-24T07:53:17;15.80;99.90
59469;DHT22;45277;52.768;18.262;2023-04-24T07:54:49;15.80;99.90
59469;DHT22;45277;52.768;18.262;2023-04-24T07:56:21;15.90;99.90
59469;DHT22;45277;52.768;18.262;2023-04-24T07:57:52;15.90;99.90
59469;DHT22;45277;52.768;18.262;2023-04-24T07:59:24;16.00;99.90
59469;DHT22;45277;52.768;18.262;2023-04-24T08:00:55;16.10;99.90
59469;DHT22;45277;52.768;18.262;2023-04-24T08:02:27;16.20;99.90
59469;DHT22;45277;52.768;18.262;2023-04-24T08:03:59;16.30;99.90
59469;DHT22;45277;52.768;18.262;2023-04-24T08:05:30;16.50;99.90
59469;DHT22;45277;52.768;18.262;2023-04-24T08:07:02;16.70;99.90
59469;DHT22;45277;52.768;18.262;2023-04-24T08:08:33;16.80;99.90
59469;DHT22;45277;52.768;18.262;2023-04-24T08:10:05;16.80;99.90
59469;DHT22;45277;52.768;18.262;2023-04-24T08:11:37;16.80;99.90
59469;DHT22;45277;52.768;18.262;2023-04-24T08:13:09;16.80;99.90
59469;DHT22;45277;52.768;18.262;2023-04-24T08:14:42;16.70;99.90
59469;DHT22;45277;52.768;18.262;2023-04-24T08:16:13;16.60;99.90
59469;DHT22;45277;52.768;18.262;2023-04-24T08:17:46;16.50;99.90
59469;DHT22;45277;52.768;18.262;2023-04-24T08:19:17;16.40;99.90
59469;DHT22;45277;52.768;18.262;2023-04-24T08:20:48;16.20;99.90
59469;DHT22;45277;52.768;18.262;2023-04-24T08:22:20;16.20;99.90
59469;DHT22;45277;52.768;18.262;2023-04-24T08:23:52;16.20;99.90
59469;DHT22;45277;52.768;18.262;2023-04-24T08:25:23;16.00;99.90
59469;DHT22;45277;52.768;18.262;2023-04-24T08:26:55;15.90;99.90
59469;DHT22;45277;52.768;18.262;2023-04-24T08:28:28;15.90;99.90
59469;DHT22;45277;52.768;18.262;2023-04-24T08:30:00;15.90;99.90
59469;DHT22;45277;52.768;18.262;2023-04-24T08:31:31;15.80;99.90
59469;DHT22;45277;52.768;18.262;2023-04-24T08:33:03;15.80;99.90
59469;DHT22;45277;52.768;18.262;2023-04-24T08:34:34;15.80;99.90
59469;DHT22;45277;52.768;18.262;2023-04-24T08:36:07;15.80;99.90
59469;DHT22;45277;52.768;18.262;2023-04-24T08:37:38;15.80;99.90
59469;DHT22;45277;52.768;18.262;2023-04-24T08:39:10;15.90;99.90
59469;DHT22;45277;52.768;18.262;2023-04-24T08:40:42;15.70;99.90
59469;DHT22;45277;52.768;18.262;2023-04-24T08:42:14;15.80;99.90
59469;DHT22;45277;52.768;18.262;2023-04-24T08:43:46;15.80;99.90
59469;DHT22;45277;52.768;18.262;2023-04-24T08:45:19;15.80;99.90
59469;DHT22;45277;52.768;18.262;2023-04-24T08:46:50;15.80;99.90
59469;DHT22;45277;52.768;18.262;2023-04-24T08:48:23;15.90;99.90
59469;DHT22;45277;52.768;18.262;2023-04-24T08:49:56;16.00;99.90
59469;DHT22;45277;52.768;18.262;2023-04-24T08:51:27;16.20;99.90
59469;DHT22;45277;52.768;18.262;2023-04-24T08:53:00;16.40;99.90
59469;DHT22;45277;52.768;18.262;2023-04-24T08:54:35;16.50;99.90
59469;DHT22;45277;52.768;18.262;2023-04-24T08:56:06;16.70;99.90
59469;DHT22;45277;52.768;18.262;2023-04-24T08:57:39;16.80;99.90
59469;DHT22;45277;52.768;18.262;2023-04-24T08:59:11;16.80;99.90
59469;DHT22;45277;52.768;18.262;2023-04-24T09:00:43;16.90;99.90
59469;DHT22;45277;52.768;18.262;2023-04-24T09:02:18;17.00;99.90
59469;DHT22;45277;52.768;18.262;2023-04-24T09:03:49;17.10;99.90
59469;DHT22;45277;52.768;18.262;2023-04-24T09:05:22;17.20;99.90
59469;DHT22;45277;52.768;18.262;2023-04-24T09:06:56;17.00;99.90
59469;DHT22;45277;52.768;18.262;2023-04-24T09:08:28;17.10;99.90
59469;DHT22;45277;52.768;18.262;2023-04-24T09:10:02;17.10;99.90
59469;DHT22;45277;52.768;18.262;2023-04-24T09:11:33;16.90;99.90
59469;DHT22;45277;52.768;18.262;2023-04-24T09:13:05;17.10;99.90
59469;DHT22;45277;52.768;18.262;2023-04-24T09:14:40;17.00;99.90
59469;DHT22;45277;52.768;18.262;2023-04-24T09:16:15;17.00;99.90
59469;DHT22;45277;52.768;18.262;2023-04-24T09:17:47;17.10;99.90
59469;DHT22;45277;52.768;18.262;2023-04-24T09:19:19;16.90;99.90
59469;DHT22;45277;52.768;18.262;2023-04-24T09:21:08;16.80;99.90
59469;DHT22;45277;52.768;18.262;2023-04-24T09:22:41;16.80;99.90
59469;DHT22;45277;52.768;18.262;2023-04-24T09:24:19;16.90;99.90
59469;DHT22;45277;52.768;18.262;2023-04-24T09:25:57;16.90;99.90
59469;DHT22;45277;52.768;18.262;2023-04-24T09:27:29;17.10;99.90
59469;DHT22;45277;52.768;18.262;2023-04-24T09:29:01;17.30;99.90
59469;DHT22;45277;52.768;18.262;2023-04-24T09:30:32;17.40;99.90